Terminal Aerodrome Forecast
Issued by NWS Boston, MA

Home | Current Version | Previous Version | Text Only | Print | Product List | Glossary On
Versions: 1 2 3 4 5 6 7 8 9 10 11 12 13 14 15 16 17 18 19 20 21 22 23
000
FTUS41 KBOX 041746 AAA
TAFBOS
TAF AMD
KBOS 041746Z 0418/0524 33010KT P6SM FEW040
     FM050000 VRB05KT P6SM BKN140
     FM051200 00000KT P6SM -RASN OVC030
     FM051500 00000KT 3SM -RASN BR OVC015
     FM052200 25004KT P6SM BKN050=

USA.gov is the U.S. government's official web portal to all federal, state and local government web resources and services.